createdAt,value
2023-03-19T00:01:50.765Z,21.60
2023-03-19T00:09:07.947Z,19.30
2023-03-19T00:11:26.716Z,17.20
2023-03-19T00:12:59.614Z,18.60
2023-03-19T00:17:45.847Z,17.30
2023-03-19T00:19:34.612Z,18.10
2023-03-19T00:21:55.320Z,17.20
2023-03-19T00:25:40.940Z,15.90
2023-03-19T00:29:30.889Z,13.70
2023-03-19T00:31:59.253Z,12.90
2023-03-19T00:35:09.616Z,12.50
2023-03-19T00:38:36.587Z,12.60
2023-03-19T00:40:05.623Z,12.00
2023-03-19T00:41:54.433Z,12.00
2023-03-19T00:45:55.167Z,10.70
2023-03-19T00:49:23.665Z,10.10
2023-03-19T00:50:51.683Z,9.30
2023-03-19T00:57:07.780Z,9.40
2023-03-19T00:58:39.608Z,7.70
2023-03-19T01:00:08.047Z,9.70
2023-03-19T01:04:09.465Z,7.40
2023-03-19T01:08:57.543Z,5.20
2023-03-19T01:12:37.612Z,5.30
2023-03-19T01:16:43.674Z,6.10
2023-03-19T01:19:42.633Z,5.00
2023-03-19T01:22:44.404Z,6.60
2023-03-19T01:24:36.587Z,4.90
2023-03-19T01:26:05.507Z,4.80
2023-03-19T01:28:54.867Z,4.40
2023-03-19T01:30:24.841Z,5.10
2023-03-19T01:35:51.511Z,5.50
2023-03-19T01:37:49.730Z,4.50
2023-03-19T01:42:51.655Z,3.30
2023-03-19T01:45:51.468Z,4.30
2023-03-19T01:48:09.050Z,3.90
2023-03-19T01:49:37.964Z,4.60
2023-03-19T01:55:07.124Z,4.20
2023-03-19T01:56:55.338Z,4.30
2023-03-19T02:01:23.280Z,4.30
2023-03-19T02:07:12.549Z,3.10
2023-03-19T02:09:01.290Z,3.70
2023-03-19T02:13:28.444Z,3.80
2023-03-19T02:15:19.347Z,4.90
2023-03-19T02:16:17.802Z,4.10
2023-03-19T02:17:17.961Z,3.30
2023-03-19T02:18:51.484Z,7.10
2023-03-19T02:20:37.388Z,4.40
2023-03-19T02:22:27.595Z,3.20
2023-03-19T02:24:49.448Z,3.00
2023-03-19T02:29:16.585Z,3.40
2023-03-19T02:32:05.280Z,3.30
2023-03-19T02:34:05.202Z,3.80
2023-03-19T02:36:06.334Z,3.60
2023-03-19T02:38:07.468Z,3.40
2023-03-19T02:39:39.364Z,5.30
2023-03-19T02:45:58.517Z,4.20
2023-03-19T02:47:28.606Z,4.10
2023-03-19T02:48:58.311Z,3.20
2023-03-19T02:51:38.069Z,3.30
2023-03-19T02:54:29.200Z,4.30
2023-03-19T02:57:31.238Z,4.20
2023-03-19T03:01:42.785Z,4.10
2023-03-19T03:08:52.851Z,3.60
2023-03-19T03:11:15.255Z,3.80
2023-03-19T03:12:43.630Z,4.30
2023-03-19T03:15:44.612Z,3.40
2023-03-19T03:19:26.878Z,3.70
2023-03-19T03:23:02.093Z,3.60
2023-03-19T03:25:20.800Z,4.00
2023-03-19T03:28:37.064Z,4.80
2023-03-19T03:34:56.858Z,6.30
2023-03-19T03:39:06.958Z,4.00
2023-03-19T03:43:14.135Z,5.50
2023-03-19T03:44:54.268Z,5.90
2023-03-19T03:46:56.987Z,4.90
2023-03-19T03:49:06.658Z,4.50
2023-03-19T03:50:34.166Z,5.30
2023-03-19T03:52:57.627Z,6.50
2023-03-19T03:54:27.540Z,4.70
2023-03-19T03:57:07.336Z,4.50
2023-03-19T03:58:57.227Z,5.70
2023-03-19T04:00:47.331Z,4.80
2023-03-19T04:02:46.050Z,4.70
2023-03-19T04:04:15.042Z,4.70
2023-03-19T04:08:08.450Z,5.20
2023-03-19T04:15:24.581Z,6.40
2023-03-19T04:17:24.294Z,5.80
2023-03-19T04:22:11.643Z,6.00
2023-03-19T04:26:07.683Z,7.80
2023-03-19T04:28:30.338Z,6.90
2023-03-19T04:30:59.038Z,6.60
2023-03-19T04:35:52.991Z,7.50
2023-03-19T04:37:39.731Z,7.50
2023-03-19T04:39:12.440Z,7.90
2023-03-19T04:41:42.925Z,9.90
2023-03-19T04:45:53.366Z,7.50
2023-03-19T04:50:24.418Z,10.20
2023-03-19T04:52:54.038Z,7.70
2023-03-19T04:54:20.998Z,7.00
2023-03-19T04:56:09.644Z,8.60
2023-03-19T05:04:17.710Z,7.40
2023-03-19T05:05:47.653Z,7.50
2023-03-19T05:07:35.467Z,7.20
2023-03-19T05:10:03.775Z,7.70
2023-03-19T05:14:39.002Z,9.50
2023-03-19T05:20:31.146Z,7.40
2023-03-19T05:22:37.655Z,9.40
2023-03-19T05:24:29.335Z,9.50
2023-03-19T05:29:11.766Z,10.10
2023-03-19T05:35:34.698Z,10.70
2023-03-19T05:37:03.550Z,9.10
2023-03-19T05:38:34.895Z,9.30
2023-03-19T05:40:57.654Z,9.60
2023-03-19T05:43:52.782Z,10.90
2023-03-19T05:45:55.508Z,10.30
2023-03-19T05:47:24.484Z,9.60
2023-03-19T05:49:53.905Z,9.20
2023-03-19T05:52:43.803Z,10.50
2023-03-19T05:55:51.337Z,12.20
2023-03-19T05:57:52.542Z,11.90
2023-03-19T06:01:22.344Z,9.50
2023-03-19T06:05:51.857Z,9.80
2023-03-19T06:07:51.814Z,11.50
2023-03-19T06:09:52.932Z,9.80
2023-03-19T06:12:11.635Z,10.90
2023-03-19T06:14:10.699Z,10.60
2023-03-19T06:15:39.690Z,10.50
2023-03-19T06:17:40.609Z,11.10
2023-03-19T06:19:41.692Z,9.40
2023-03-19T06:21:10.096Z,11.80
2023-03-19T06:23:13.847Z,9.50
2023-03-19T06:26:28.952Z,9.20
2023-03-19T06:28:28.859Z,10.00
2023-03-19T06:30:29.644Z,10.20
2023-03-19T06:31:58.174Z,10.00
2023-03-19T06:37:04.030Z,10.50
2023-03-19T06:40:55.705Z,10.10
2023-03-19T06:42:26.661Z,9.00
2023-03-19T06:43:53.523Z,9.30
2023-03-19T06:46:40.136Z,10.70
2023-03-19T06:50:30.109Z,9.90
2023-03-19T06:54:38.533Z,14.60
2023-03-19T06:56:10.554Z,12.50
2023-03-19T06:57:39.713Z,10.20
2023-03-19T06:59:39.683Z,9.30
2023-03-19T07:04:06.114Z,9.70
2023-03-19T07:06:23.027Z,11.90
2023-03-19T07:08:31.528Z,11.30
2023-03-19T07:10:00.496Z,11.20
2023-03-19T07:11:29.556Z,11.60
2023-03-19T07:20:00.343Z,12.10
2023-03-19T07:22:59.102Z,10.50
2023-03-19T07:25:26.590Z,10.80
2023-03-19T07:29:52.608Z,9.10
2023-03-19T07:32:40.320Z,11.60
2023-03-19T07:34:40.465Z,11.20
2023-03-19T07:38:36.722Z,12.20
2023-03-19T07:40:25.581Z,12.50
2023-03-19T07:42:45.107Z,11.70
2023-03-19T07:44:42.844Z,11.60
2023-03-19T07:47:27.951Z,13.30
2023-03-19T07:50:14.923Z,11.20
2023-03-19T07:55:33.875Z,11.10
2023-03-19T07:57:31.676Z,10.00
2023-03-19T07:58:59.753Z,9.90
2023-03-19T08:03:22.492Z,9.40
2023-03-19T08:09:55.242Z,9.90
2023-03-19T08:11:43.957Z,9.20
2023-03-19T08:20:23.752Z,10.40
2023-03-19T08:22:16.248Z,8.50
2023-03-19T08:24:32.655Z,8.10
2023-03-19T08:26:02.761Z,8.60
2023-03-19T08:28:42.153Z,8.20
2023-03-19T08:35:44.075Z,9.10
2023-03-19T08:38:15.165Z,8.80
2023-03-19T08:41:35.937Z,8.40
2023-03-19T08:44:37.827Z,8.60
2023-03-19T08:46:28.095Z,8.70
2023-03-19T08:49:53.039Z,8.90
2023-03-19T08:51:24.191Z,8.30
2023-03-19T08:54:54.890Z,7.20
2023-03-19T08:57:16.189Z,6.60
2023-03-19T09:00:52.898Z,7.70
2023-03-19T09:02:41.812Z,7.30
2023-03-19T09:05:01.428Z,7.10
2023-03-19T09:06:36.070Z,7.10
2023-03-19T09:08:35.394Z,6.80
2023-03-19T09:10:26.203Z,6.60
2023-03-19T09:13:07.547Z,7.30
2023-03-19T09:21:23.635Z,6.70
2023-03-19T09:23:24.463Z,6.00
2023-03-19T09:26:04.886Z,6.00
2023-03-19T09:29:24.624Z,5.90
2023-03-19T09:31:58.740Z,5.90
2023-03-19T09:36:59.865Z,5.70
2023-03-19T09:38:34.374Z,4.80
2023-03-19T09:40:52.592Z,4.90
2023-03-19T09:42:21.516Z,5.20
2023-03-19T09:45:05.340Z,5.30
2023-03-19T09:46:54.398Z,5.00
2023-03-19T09:48:45.260Z,5.30
2023-03-19T09:50:13.791Z,5.80
2023-03-19T09:51:44.501Z,5.50
2023-03-19T09:54:08.324Z,5.80
2023-03-19T09:56:28.214Z,5.70
2023-03-19T09:58:33.594Z,5.30
2023-03-19T10:00:25.039Z,6.50
2023-03-19T10:06:35.464Z,5.30
2023-03-19T10:09:59.913Z,6.10
2023-03-19T10:12:19.578Z,5.40
2023-03-19T10:14:41.304Z,4.40
2023-03-19T10:17:46.980Z,4.40
2023-03-19T10:22:48.358Z,4.30
2023-03-19T10:25:14.632Z,4.10
2023-03-19T10:27:44.356Z,5.70
2023-03-19T10:30:29.962Z,4.00
2023-03-19T10:31:58.298Z,4.20
2023-03-19T10:34:03.727Z,3.90
2023-03-19T10:37:50.784Z,5.00
2023-03-19T10:40:20.681Z,4.20
2023-03-19T10:42:25.982Z,3.70
2023-03-19T10:45:47.376Z,4.10
2023-03-19T10:47:18.188Z,3.70
2023-03-19T10:51:00.442Z,6.80
2023-03-19T10:53:27.925Z,3.40
2023-03-19T10:54:27.180Z,3.50
2023-03-19T10:55:26.134Z,3.50
2023-03-19T10:59:14.902Z,3.60
2023-03-19T11:02:02.140Z,3.40
2023-03-19T11:03:36.247Z,3.50
2023-03-19T11:05:08.307Z,4.70
2023-03-19T11:06:39.177Z,3.50
2023-03-19T11:12:09.581Z,2.60
2023-03-19T11:15:06.424Z,3.10
2023-03-19T11:17:26.072Z,3.10
2023-03-19T11:24:07.623Z,2.80
2023-03-19T11:28:56.459Z,3.40
2023-03-19T11:32:40.240Z,2.20
2023-03-19T11:37:19.289Z,2.40
2023-03-19T11:40:35.334Z,1.80
2023-03-19T11:42:59.457Z,2.40
2023-03-19T11:44:57.500Z,2.40
2023-03-19T11:47:02.254Z,1.80
2023-03-19T11:48:34.832Z,2.20
2023-03-19T11:51:04.217Z,2.10
2023-03-19T11:52:33.180Z,1.70
2023-03-19T12:00:06.299Z,1.30
2023-03-19T12:05:36.994Z,1.10
2023-03-19T12:07:35.745Z,1.90
2023-03-19T12:09:42.635Z,1.40
2023-03-19T12:11:31.098Z,1.80
2023-03-19T12:13:02.995Z,2.40
2023-03-19T12:14:31.508Z,1.40
2023-03-19T12:18:00.099Z,1.40
2023-03-19T12:21:50.858Z,1.90
2023-03-19T12:24:42.842Z,2.10
2023-03-19T12:27:49.156Z,1.30
2023-03-19T12:29:56.864Z,0.90
2023-03-19T12:31:29.871Z,1.20
2023-03-19T12:32:57.054Z,1.80
2023-03-19T12:35:29.848Z,2.00
2023-03-19T12:37:31.199Z,1.50
2023-03-19T12:38:59.404Z,1.80
2023-03-19T12:41:31.244Z,2.00
2023-03-19T12:42:59.187Z,2.10
2023-03-19T12:45:53.330Z,4.00
2023-03-19T12:47:20.697Z,1.30
2023-03-19T12:48:50.674Z,1.00
2023-03-19T12:53:04.527Z,1.30
2023-03-19T12:55:24.536Z,9.20
2023-03-19T12:57:41.197Z,1.50
2023-03-19T12:59:38.555Z,1.20
2023-03-19T13:01:11.326Z,1.00
2023-03-19T13:08:01.739Z,1.40
2023-03-19T13:13:02.840Z,3.10
2023-03-19T13:14:31.150Z,2.00
2023-03-19T13:16:04.245Z,7.00
2023-03-19T13:17:31.202Z,1.90
2023-03-19T13:19:51.472Z,0.70
2023-03-19T13:21:22.493Z,1.20
2023-03-19T13:23:24.106Z,1.70
2023-03-19T13:25:21.495Z,1.50
2023-03-19T13:26:42.376Z,1.30
2023-03-19T13:27:22.005Z,1.90
2023-03-19T13:29:23.088Z,1.00
2023-03-19T13:31:05.518Z,1.00
2023-03-19T13:32:31.505Z,1.30
2023-03-19T13:36:00.000Z,1.40
2023-03-19T13:39:30.381Z,0.70
2023-03-19T13:40:59.361Z,0.60
2023-03-19T13:45:59.964Z,1.00
2023-03-19T13:47:49.939Z,2.00
2023-03-19T13:51:32.857Z,1.30
2023-03-19T13:56:51.942Z,2.10
2023-03-19T14:04:30.503Z,2.90
2023-03-19T14:08:19.881Z,1.50
2023-03-19T14:10:52.839Z,1.70
2023-03-19T14:12:53.737Z,1.40
2023-03-19T14:14:22.787Z,2.00
2023-03-19T14:15:52.855Z,1.00
2023-03-19T14:19:16.122Z,1.60
2023-03-19T14:22:21.371Z,1.90
2023-03-19T14:24:54.816Z,1.90
2023-03-19T14:28:22.430Z,2.40
2023-03-19T14:33:52.900Z,2.60
2023-03-19T14:35:42.050Z,2.40
2023-03-19T14:37:12.756Z,2.00
2023-03-19T14:39:06.009Z,1.50
2023-03-19T14:40:33.205Z,1.40
2023-03-19T14:42:06.669Z,4.00
2023-03-19T14:44:03.958Z,1.50
2023-03-19T14:46:01.940Z,4.70
2023-03-19T14:48:02.497Z,1.60
2023-03-19T14:49:36.389Z,1.60
2023-03-19T14:54:27.249Z,3.60
2023-03-19T14:55:38.296Z,1.50
2023-03-19T14:58:26.130Z,3.30
2023-03-19T15:00:15.106Z,2.70
2023-03-19T15:02:31.617Z,3.20
2023-03-19T15:05:02.440Z,3.90
2023-03-19T15:07:51.106Z,3.80
2023-03-19T15:09:21.998Z,4.00
2023-03-19T15:11:40.104Z,4.70
2023-03-19T15:13:11.615Z,4.80
2023-03-19T15:16:28.331Z,6.40
2023-03-19T15:19:19.362Z,5.30
2023-03-19T15:20:49.877Z,8.00
2023-03-19T15:22:49.687Z,5.30
2023-03-19T15:24:20.059Z,6.20
2023-03-19T15:27:33.795Z,7.70
2023-03-19T15:35:17.342Z,8.80
2023-03-19T15:36:46.124Z,9.30
2023-03-19T15:38:13.514Z,10.20
2023-03-19T15:41:56.654Z,12.10
2023-03-19T15:43:25.323Z,12.80
2023-03-19T15:47:05.191Z,13.80
2023-03-19T15:50:05.991Z,17.70
2023-03-19T15:55:23.614Z,19.20
2023-03-19T15:56:55.499Z,17.00
2023-03-19T15:58:23.390Z,23.00
2023-03-19T15:59:53.440Z,18.60
2023-03-19T16:03:23.971Z,19.10
2023-03-19T16:06:40.902Z,20.10
2023-03-19T16:09:58.305Z,19.00
2023-03-19T16:12:56.846Z,18.60
2023-03-19T16:18:13.641Z,17.10
2023-03-19T16:22:01.256Z,19.60
2023-03-19T16:24:19.531Z,19.60
2023-03-19T16:25:50.915Z,18.00
2023-03-19T16:29:22.882Z,20.70
2023-03-19T16:32:17.654Z,21.30
2023-03-19T16:35:47.859Z,21.10
2023-03-19T16:38:20.742Z,16.60
2023-03-19T16:45:29.146Z,20.60
2023-03-19T16:55:29.992Z,24.60
2023-03-19T17:00:30.709Z,21.30
2023-03-19T17:02:01.365Z,18.30
2023-03-19T17:04:29.469Z,20.60
2023-03-19T17:06:29.345Z,20.90
2023-03-19T17:08:28.371Z,19.30
2023-03-19T17:10:25.493Z,22.80
2023-03-19T17:17:43.060Z,22.70
2023-03-19T17:22:36.080Z,23.40
2023-03-19T17:28:35.727Z,22.20
2023-03-19T17:31:08.810Z,24.10
2023-03-19T17:33:43.879Z,20.30
2023-03-19T17:39:34.384Z,23.30
2023-03-19T17:41:24.139Z,24.10
2023-03-19T17:43:24.073Z,23.10
2023-03-19T17:44:54.036Z,24.60
2023-03-19T17:52:51.724Z,23.90
2023-03-19T17:54:49.684Z,22.10
2023-03-19T17:57:21.110Z,21.00
2023-03-19T18:00:18.987Z,21.50
2023-03-19T18:06:15.399Z,21.70
2023-03-19T18:08:43.171Z,19.40
2023-03-19T18:09:42.682Z,22.70
2023-03-19T18:10:42.757Z,19.50
2023-03-19T18:16:43.836Z,20.60
2023-03-19T18:27:06.447Z,22.60
2023-03-19T18:28:37.310Z,21.20
2023-03-19T18:34:34.089Z,19.20
2023-03-19T18:37:02.515Z,25.20
2023-03-19T18:40:01.405Z,21.40
2023-03-19T18:43:19.469Z,21.90
2023-03-19T18:44:51.718Z,21.40
2023-03-19T18:47:42.463Z,20.40
2023-03-19T18:54:37.652Z,22.70
2023-03-19T18:57:54.266Z,19.60
2023-03-19T18:59:51.858Z,24.00
2023-03-19T19:02:20.753Z,23.00
2023-03-19T19:06:47.592Z,23.50
2023-03-19T19:09:16.439Z,29.70
2023-03-19T19:13:24.383Z,25.90
2023-03-19T19:19:50.579Z,25.70
2023-03-19T19:23:08.782Z,22.40
2023-03-19T19:31:01.148Z,27.30
2023-03-19T19:34:23.320Z,28.30
2023-03-19T19:35:50.311Z,29.20
2023-03-19T19:38:52.845Z,30.90
2023-03-19T19:41:19.589Z,27.80
2023-03-19T19:42:50.385Z,31.00
2023-03-19T19:46:19.893Z,29.30
2023-03-19T19:49:58.776Z,28.20
2023-03-19T19:53:00.734Z,30.60
2023-03-19T19:54:48.609Z,32.10
2023-03-19T19:56:47.343Z,34.40
2023-03-19T19:58:46.761Z,34.80
2023-03-19T20:00:56.678Z,36.30
2023-03-19T20:04:24.830Z,36.90
2023-03-19T20:07:21.625Z,37.50
2023-03-19T20:08:50.649Z,36.30
2023-03-19T20:11:28.312Z,36.90
2023-03-19T20:12:58.140Z,35.30
2023-03-19T20:15:15.930Z,37.30
2023-03-19T20:18:07.827Z,38.10
2023-03-19T20:19:44.885Z,40.00
2023-03-19T20:21:18.835Z,44.40
2023-03-19T20:24:54.046Z,36.80
2023-03-19T20:27:32.914Z,43.40
2023-03-19T20:29:02.844Z,45.70
2023-03-19T20:34:32.487Z,40.40
2023-03-19T20:37:06.194Z,41.40
2023-03-19T20:39:56.726Z,45.20
2023-03-19T20:45:31.600Z,48.00
2023-03-19T20:46:58.241Z,47.10
2023-03-19T20:49:59.236Z,48.00
2023-03-19T20:51:28.773Z,48.40
2023-03-19T20:55:26.786Z,45.30
2023-03-19T21:00:45.304Z,38.00
2023-03-19T21:06:12.014Z,44.50
2023-03-19T21:11:18.528Z,48.20
2023-03-19T21:13:09.170Z,46.60
2023-03-19T21:18:22.036Z,48.50
2023-03-19T21:20:46.602Z,46.70
2023-03-19T21:22:45.600Z,46.90
2023-03-19T21:27:33.639Z,44.10
2023-03-19T21:32:21.514Z,47.60
2023-03-19T21:36:25.939Z,52.70
2023-03-19T21:37:53.761Z,50.60
2023-03-19T21:41:38.866Z,52.40
2023-03-19T21:44:56.044Z,50.00
2023-03-19T21:48:40.982Z,49.60
2023-03-19T21:52:01.778Z,45.10
2023-03-19T21:57:42.444Z,49.70
2023-03-19T22:02:30.552Z,45.40
2023-03-19T22:04:59.964Z,43.50
2023-03-19T22:10:08.590Z,42.90
2023-03-19T22:13:04.529Z,47.60
2023-03-19T22:15:03.697Z,44.50
2023-03-19T22:17:23.484Z,43.40
2023-03-19T22:19:44.081Z,43.80
2023-03-19T22:24:46.996Z,46.60
2023-03-19T22:28:01.349Z,43.30
2023-03-19T22:30:30.365Z,43.70
2023-03-19T22:33:20.978Z,44.30
2023-03-19T22:34:48.030Z,51.70
2023-03-19T22:38:25.409Z,43.80
2023-03-19T22:47:15.206Z,45.30
2023-03-19T22:50:33.018Z,45.90
2023-03-19T22:53:01.272Z,46.90
2023-03-19T22:54:30.300Z,42.90
2023-03-19T22:56:02.139Z,46.90
2023-03-19T23:00:25.195Z,46.00
2023-03-19T23:03:16.900Z,50.30
2023-03-19T23:05:16.651Z,47.70
2023-03-19T23:07:14.513Z,44.00
2023-03-19T23:08:46.373Z,44.10
2023-03-19T23:10:29.767Z,50.60
2023-03-19T23:12:34.718Z,47.60
2023-03-19T23:15:12.601Z,51.80
2023-03-19T23:17:44.019Z,54.70
2023-03-19T23:21:48.204Z,47.60
2023-03-19T23:23:16.150Z,46.90
2023-03-19T23:24:46.089Z,48.00
2023-03-19T23:26:37.747Z,50.00
2023-03-19T23:28:38.982Z,55.20
2023-03-19T23:33:04.355Z,47.30
2023-03-19T23:36:56.101Z,46.70
2023-03-19T23:38:54.502Z,47.80
2023-03-19T23:44:45.409Z,50.40
2023-03-19T23:51:39.842Z,46.90
2023-03-19T23:55:11.108Z,47.60
2023-03-19T23:56:39.276Z,47.00
2023-03-19T23:58:28.451Z,50.80
